Jonava Airport


Codes: EYRU/
Name: Jonava Airport
City: Jonava
Country: Lithuania
Elevation: 246 ft.
Wikipedia:

Photos at Jonava Airport


   Photos courtesy of SpottingLog. You can add your own sightings and photos by signing up for a free trial today.



No photos found.

Weather at Jonava Airport


Time (UTC)DescriptionTempratureWindCloud coverageVisibilityPressureHumidity
15-Apr-2024 18:00Scattered Clouds9°C7 mph, W39%10000m1004hPa56%
15-Apr-2024 21:00Scattered Clouds6°C4 mph, W33%10000m1003hPa70%
16-Apr-2024 00:00Few Clouds2°C2 mph, SW17%10000m1002hPa84%
16-Apr-2024 03:00Overcast Clouds2°C4 mph, SE93%10000m999hPa80%
16-Apr-2024 06:00Overcast Clouds6°C7 mph, SE97%10000m997hPa68%
16-Apr-2024 09:00Moderate Rain5°C9 mph, SE100%10000m994hPa93%
16-Apr-2024 12:00Light Rain9°C18 mph, SW95%10000m995hPa69%
16-Apr-2024 15:00Light Rain8°C13 mph, SW92%10000m995hPa74%
16-Apr-2024 18:00Light Rain4°C9 mph, W91%10000m997hPa91%
16-Apr-2024 21:00Overcast Clouds4°C11 mph, W100%332m997hPa96%
17-Apr-2024 00:00Light Rain3°C7 mph, W100%83m999hPa97%
17-Apr-2024 03:00Overcast Clouds3°C4 mph, W100%10000m999hPa97%
17-Apr-2024 06:00Overcast Clouds5°C4 mph, NW93%10000m1001hPa85%
17-Apr-2024 09:00Overcast Clouds8°C2 mph, NW86%10000m1002hPa67%
17-Apr-2024 12:00Overcast Clouds10°C2 mph, NW86%10000m1002hPa54%
17-Apr-2024 15:00Overcast Clouds10°C2 mph, SE98%10000m1002hPa53%
17-Apr-2024 18:00Light Rain7°C4 mph, N99%10000m1005hPa84%
17-Apr-2024 21:00Light Rain6°C7 mph, NE100%10000m1005hPa92%
18-Apr-2024 00:00Light Rain5°C4 mph, N100%10000m1006hPa93%
18-Apr-2024 03:00Light Rain3°C11 mph, N100%10000m1007hPa95%
18-Apr-2024 06:00Light Snow2°C11 mph, N100%44m1008hPa97%
18-Apr-2024 09:00Light Snow2°C11 mph, N100%67m1009hPa97%
18-Apr-2024 12:00Light Rain3°C11 mph, N100%2m1008hPa97%
18-Apr-2024 15:00Light Rain3°C11 mph, N100%0m1008hPa97%
18-Apr-2024 18:00Snow2°C11 mph, N100%0m1008hPa98%
18-Apr-2024 21:00Snow1°C13 mph, NW100%31m1005hPa98%
19-Apr-2024 00:00Snow1°C11 mph, NW100%40m1003hPa98%
19-Apr-2024 03:00Snow1°C11 mph, NW100%23m1002hPa98%
19-Apr-2024 06:00Snow0°C13 mph, NW100%147m1002hPa97%
19-Apr-2024 09:00Light Snow1°C13 mph, NW100%122m1003hPa97%
19-Apr-2024 12:00Snow2°C13 mph, NW100%4970m1004hPa89%
19-Apr-2024 15:00Light Snow3°C7 mph, NW100%10000m1004hPa83%
19-Apr-2024 18:00Light Snow2°C9 mph, W100%10000m1005hPa92%
19-Apr-2024 21:00Overcast Clouds-1°C7 mph, W100%10000m1006hPa94%
20-Apr-2024 00:00Overcast Clouds-3°C4 mph, W99%10000m1008hPa97%
20-Apr-2024 03:00Broken Clouds-5°C4 mph, SW62%10000m1010hPa96%
20-Apr-2024 06:00Broken Clouds0°C9 mph, W56%10000m1011hPa82%
20-Apr-2024 09:00Broken Clouds3°C9 mph, W71%10000m1013hPa68%
20-Apr-2024 12:00Overcast Clouds4°C9 mph, SW85%10000m1015hPa65%
20-Apr-2024 15:00Overcast Clouds6°C7 mph, W100%10000m1016hPa64%